Flight Track Log - Related Links

Times and Time Zones

All times are in EST time to prevent confusion due to time zone crossing. See the DAL369 flight status page for this flight to view local times or setup timezone preferences in your user account.


Time Position Orientation Groundspeed Altitude Reporting Facility
EST Latitude Longitude Course Direction KTS MPH feet Rate Location/Type
Thu 11:25:55 AM 33.9333 -118.4500 90° East 185 213 1,500  Level Southern California TRACON
Thu 11:26:55 AM 33.8833 -118.5000 220° Southwest 233 268 3,200 1,700 Climbing Southern California TRACON
Thu 11:27:55 AM 33.8167 -118.5000 180° South 271 312 4,900 1,924 Climbing Southern California TRACON
Thu 11:28:00 AM 33.6334 -118.2721 90° East  Level FlightAware Approximate
Thu 11:29:00 AM 33.6333 -118.1094 90° East  Level FlightAware Approximate
Thu 11:29:06 AM 33.7319 -118.5169 189° South 277 319 7,400  Level Los Angeles Center
Thu 11:30:00 AM 33.6333 -117.9466 90° East  Level FlightAware Approximate
Thu 11:30:08 AM 33.6775 -118.4567 137° Southeast 301 346 9,900  Level Los Angeles Center
Thu 11:31:00 AM 33.6333 -117.7838 90° East  Level FlightAware Approximate
Thu 11:31:10 AM 33.6492 -118.3578 109° East 320 368 11,100  Level Los Angeles Center
Thu 11:32:12 AM 33.6450 -118.2108 92° East 375 432 12,700 1,306 Climbing Los Angeles Center
Thu 11:33:14 AM 33.6444 -118.0728 90° East 408 470 13,800 1,258 Climbing Los Angeles Center
Thu 11:34:16 AM 33.6447 -117.9219 90° East 444 511 15,300 1,597 Climbing Los Angeles Center
Thu 11:35:18 AM 33.6436 -117.7681 90° East 461 531 17,100 1,645 Climbing Los Angeles Center
Thu 11:36:20 AM 33.6433 -117.6114 90° East 470 541 18,700 1,355 Climbing Los Angeles Center
Thu 11:37:22 AM 33.6414 -117.4147 91° East 491 565 19,900 1,258 Climbing Los Angeles Center
Thu 11:38:24 AM 33.6403 -117.2447 90° East 509 586 21,300 1,248 Climbing Los Angeles Center
Thu 11:39:27 AM 33.6386 -117.0714 91° East 520 598 22,500 1,152 Climbing Los Angeles Center
Thu 11:40:29 AM 33.6381 -116.8939 90° East 529 609 23,700 1,065 Climbing Los Angeles Center
Thu 11:41:31 AM 33.6347 -116.7194 91° East 533 613 24,700 1,161 Climbing Los Angeles Center
Thu 11:42:33 AM 33.6336 -116.5378 90° East 541 623 26,100 1,403 Climbing Los Angeles Center
Thu 11:43:35 AM 33.6303 -116.3192 91° East 543 625 27,600 1,403 Climbing Los Angeles Center
Thu 11:44:37 AM 33.6339 -116.1414 89° East 535 616 29,000 1,403 Climbing Los Angeles Center
Thu 11:45:39 AM 33.6586 -115.9608 81° East 541 623 30,500 1,258 Climbing Los Angeles Center
Thu 11:46:41 AM 33.6872 -115.7836 79° East 541 623 31,600 968 Climbing Los Angeles Center
Thu 11:47:43 AM 33.7181 -115.6064 78° East 541 623 32,500 726 Climbing Los Angeles Center
Thu 11:48:45 AM 33.7400 -115.4622 80° East 545 627 33,100 864 Climbing Los Angeles Center
Thu 11:49:48 AM 33.7783 -115.2069 80° East 555 639 34,300 912 Climbing Los Angeles Center
Thu 11:50:50 AM 33.8081 -115.0278 79° East 546 628 35,000 339 Climbing Los Angeles Center
Thu 11:51:52 AM 33.8350 -114.8478 80° East 547 629 35,000  Level Los Angeles Center
Thu 11:52:54 AM 33.8639 -114.6717 79° East 538 619 35,000  Level Los Angeles Center
Thu 11:53:56 AM 33.8922 -114.4939 79° East 541 623 35,000  Level Los Angeles Center
Thu 11:54:58 AM 33.9194 -114.3153 80° East 542 624 35,000  Level Los Angeles Center
Thu 11:56:01 AM 33.9511 -114.0981 80° East 550 633 35,000  Level Los Angeles Center
Thu 11:57:03 AM 33.9744 -113.9150 81° East 555 639 35,000  Level Los Angeles Center
Thu 11:57:50 AM 33.9936 -113.7956 79° East 551 634 35,000  Level Albuquerque Center
Thu 11:58:52 AM 34.0203 -113.6108 80° East 555 639 35,000  Level Albuquerque Center
Thu 11:59:54 AM 34.0517 -113.3842 80° East 563 648 35,000  Level Albuquerque Center
Thu 12:00:56 PM 34.0686 -113.1992 84° East 559 643 35,000  Level Albuquerque Center
Thu 12:01:58 PM 34.0881 -113.0150 83° East 555 639 35,000  Level Albuquerque Center
Thu 12:03:01 PM 34.1067 -112.8328 83° East 552 635 35,000  Level Albuquerque Center
Thu 12:04:03 PM 34.1269 -112.6239 83° East 551 634 35,000  Level Albuquerque Center
Thu 12:05:05 PM 34.1458 -112.4258 83° East 552 635 35,000  Level Albuquerque Center
Thu 12:06:07 PM 34.1644 -112.2447 83° East 547 629 35,000  Level Albuquerque Center
Thu 12:07:09 PM 34.1814 -112.0622 84° East 546 628 35,000  Level Albuquerque Center
Thu 12:08:11 PM 34.2000 -111.8642 83° East 550 633 35,000  Level Albuquerque Center
Thu 12:09:13 PM 34.2164 -111.6814 84° East 548 631 35,000  Level Albuquerque Center
Thu 12:10:15 PM 34.2342 -111.4825 84° East 552 635 35,000  Level Albuquerque Center
Thu 12:11:17 PM 34.2514 -111.2981 84° East 550 633 35,000  Level Albuquerque Center
Thu 12:12:19 PM 34.2675 -111.1156 84° East 549 632 35,000  Level Albuquerque Center
Thu 12:13:21 PM 34.2836 -110.9308 84° East 551 634 35,000  Level Albuquerque Center
Thu 12:14:23 PM 34.2997 -110.7472 84° East 549 632 35,000  Level Albuquerque Center
Thu 12:15:26 PM 34.3181 -110.5356 84° East 545 627 35,000  Level Albuquerque Center
Thu 12:16:28 PM 34.3322 -110.3625 84° East 543 625 35,000  Level Albuquerque Center
Thu 12:17:30 PM 34.3464 -110.1878 84° East 544 626 35,000  Level Albuquerque Center
Thu 12:18:32 PM 34.3617 -109.9844 85° East 544 626 35,000  Level Albuquerque Center
Thu 12:19:34 PM 34.3750 -109.8117 85° East 542 624 35,000  Level Albuquerque Center
Thu 12:20:36 PM 34.3908 -109.6092 85° East 542 624 35,000  Level Albuquerque Center
Thu 12:21:38 PM 34.4028 -109.4389 85° East 537 618 35,000  Level Albuquerque Center
Thu 12:22:40 PM 34.4178 -109.2408 85° East 532 612 35,000  Level Albuquerque Center
Thu 12:23:42 PM 34.4339 -109.0719 83° East 530 610 35,000  Level Albuquerque Center
Thu 12:24:44 PM 34.4614 -108.8767 80° East 529 609 35,000  Level Albuquerque Center
Thu 12:25:46 PM 34.4833 -108.7064 81° East 532 612 35,000  Level Albuquerque Center
Thu 12:26:48 PM 34.5111 -108.5053 80° East 538 619 35,000  Level Albuquerque Center
Thu 12:27:50 PM 34.5344 -108.3197 81° East 537 618 35,000  Level Albuquerque Center
Thu 12:28:53 PM 34.5586 -108.1439 80° East 532 612 35,000  Level Albuquerque Center
Thu 12:29:55 PM 34.5803 -107.9683 81° East 530 610 35,000  Level Albuquerque Center
Thu 12:30:57 PM 34.6019 -107.7942 81° East 524 603 35,000  Level Albuquerque Center
Thu 12:31:59 PM 34.6236 -107.6197 81° East 524 603 35,000  Level Albuquerque Center
Thu 12:33:01 PM 34.6489 -107.4186 81° East 524 603 35,000  Level Albuquerque Center
Thu 12:34:03 PM 34.6722 -107.2314 81° East 523 602 35,000  Level Albuquerque Center
Thu 12:35:05 PM 34.6928 -107.0575 82° East 521 600 35,000  Level Albuquerque Center
Thu 12:36:07 PM 34.7153 -106.8703 82° East 523 602 35,000  Level Albuquerque Center
Thu 12:37:09 PM 34.7344 -106.7042 82° East 524 603 35,000  Level Albuquerque Center
Thu 12:38:11 PM 34.7553 -106.5297 82° East 523 602 35,000  Level Albuquerque Center
Thu 12:39:13 PM 34.7744 -106.3536 82° East 526 605 35,000  Level Albuquerque Center
Thu 12:40:15 PM 34.7969 -106.1403 83° East 535 616 35,000  Level Albuquerque Center
Thu 12:41:18 PM 34.8178 -105.9642 82° East 533 613 35,000  Level Albuquerque Center
Thu 12:42:20 PM 34.8356 -105.7919 83° East 522 601 35,000  Level Albuquerque Center
Thu 12:43:22 PM 34.8542 -105.6178 83° East 521 600 35,000  Level Albuquerque Center
Thu 12:44:24 PM 34.8736 -105.4389 82° East 521 600 35,000  Level Albuquerque Center
Thu 12:45:26 PM 34.8922 -105.2633 83° East 520 598 35,000  Level Albuquerque Center
Thu 12:46:28 PM 34.9128 -105.0575 83° East 521 600 35,000  Level Albuquerque Center
Thu 12:47:30 PM 34.9311 -104.8811 83° East 521 600 35,000  Level Albuquerque Center
Thu 12:48:32 PM 34.9489 -104.7044 83° East 524 603 35,000  Level Albuquerque Center
Thu 12:49:34 PM 34.9667 -104.5272 83° East 524 603 35,000  Level Albuquerque Center
Thu 12:50:36 PM 34.9828 -104.3517 84° East 523 602 35,000  Level Albuquerque Center
Thu 12:51:38 PM 35.0033 -104.1483 83° East 522 601 35,000  Level Albuquerque Center
Thu 12:52:40 PM 35.0197 -103.9733 83° East 523 602 35,000  Level Albuquerque Center
Thu 12:53:42 PM 35.0364 -103.7981 83° East 522 601 35,000  Level Albuquerque Center
Thu 12:54:45 PM 35.0525 -103.6222 84° East 521 600 35,000  Level Albuquerque Center
Thu 12:55:47 PM 35.0683 -103.4467 84° East 519 597 35,000  Level Albuquerque Center
Thu 12:56:49 PM 35.0839 -103.2711 84° East 519 597 35,000  Level Albuquerque Center
Thu 12:57:51 PM 35.1011 -103.0661 84° East 518 596 35,000  Level Albuquerque Center
Thu 12:58:53 PM 35.1139 -102.9147 84° East 519 597 35,000  Level Albuquerque Center
Thu 12:59:55 PM 35.1308 -102.7036 84° East 521 600 35,000  Level Albuquerque Center
Thu 01:00:57 PM 35.1450 -102.5278 84° East 521 600 35,000  Level Albuquerque Center
Thu 01:01:59 PM 35.1589 -102.3511 84° East 523 602 35,000  Level Albuquerque Center
Thu 01:03:01 PM 35.1733 -102.1739 84° East 525 604 35,000  Level Albuquerque Center
Thu 01:04:03 PM 35.1894 -101.9672 84° East 528 608 35,000  Level Albuquerque Center
Thu 01:05:05 PM 35.2056 -101.7864 84° East 530 610 35,000  Level Albuquerque Center
Thu 01:06:07 PM 35.2175 -101.6206 85° East 531 611 35,000  Level Albuquerque Center
Thu 01:07:09 PM 35.2289 -101.4403 86° East 532 612 35,000  Level Albuquerque Center
Thu 01:08:12 PM 35.2422 -101.2578 85° East 533 613 35,000  Level Albuquerque Center
Thu 01:09:14 PM 35.2581 -101.0411 85° East 535 616 35,000 387 Level Albuquerque Center
Thu 01:10:16 PM 35.2714 -100.8628 85° East 531 611 35,800 677 Climbing Albuquerque Center
Thu 01:11:18 PM 35.2831 -100.6817 85° East 532 612 36,400 581 Climbing Albuquerque Center
Thu 01:12:20 PM 35.2922 -100.4983 86° East 535 616 37,000 290 Climbing Albuquerque Center
Thu 01:13:22 PM 35.3044 -100.3178 85° East 535 616 37,000  Level Albuquerque Center
Thu 01:14:24 PM 35.3150 -100.1358 86° East 535 616 37,000  Level Albuquerque Center
Thu 01:15:26 PM 35.3294 -99.9181 85° East 536 617 37,000 -290 Level Albuquerque Center
Thu 01:16:28 PM 35.3397 -99.7350 86° East 538 619 36,400 -629 Descending Albuquerque Center
Thu 01:17:30 PM 35.3492 -99.5528 86° East 539 620 35,700 -661 Descending Albuquerque Center
Thu 01:18:35 PM 35.3500 -99.3733 90° East 532 612 35,000 -331 Descending Fort Worth Center
Thu 01:19:37 PM 35.3514 -99.1594 89° East 527 606 35,000  Level Fort Worth Center
Thu 01:20:39 PM 35.3531 -98.9806 89° East 527 606 35,000  Level Fort Worth Center
Thu 01:21:41 PM 35.3556 -98.8000 89° East 531 611 35,000  Level Fort Worth Center
Thu 01:22:44 PM 35.3581 -98.6172 89° East 539 620 35,000  Level Fort Worth Center
Thu 01:23:46 PM 35.3592 -98.4272 90° East 535 616 35,000  Level Fort Worth Center
Thu 01:24:48 PM 35.3603 -98.2469 90° East 532 612 35,000  Level Fort Worth Center
Thu 01:25:50 PM 35.3606 -98.0667 90° East 534 615 35,000  Level Fort Worth Center
Thu 01:26:52 PM 35.3603 -97.8500 90° East 534 615 35,000  Level Fort Worth Center
Thu 01:27:54 PM 35.3597 -97.6694 90° East 534 615 35,000  Level Fort Worth Center
Thu 01:28:56 PM 35.3575 -97.4964 91° East 530 610 35,000  Level Fort Worth Center
Thu 01:29:58 PM 35.3564 -97.3122 90° East 536 617 35,000  Level Fort Worth Center
Thu 01:31:00 PM 35.3503 -97.1036 92° East 536 617 35,000  Level Fort Worth Center
Thu 01:32:03 PM 35.3481 -96.9222 91° East 537 618 35,000  Level Fort Worth Center
Thu 01:33:05 PM 35.3444 -96.7411 91° East 534 615 35,000  Level Fort Worth Center
Thu 01:34:07 PM 35.3406 -96.5619 91° East 531 611 35,000  Level Fort Worth Center
Thu 01:35:09 PM 35.3369 -96.3825 91° East 530 610 35,000  Level Fort Worth Center
Thu 01:36:11 PM 35.3325 -96.1669 91° East 530 610 35,000 387 Level Fort Worth Center
Thu 01:37:13 PM 35.3272 -95.9908 92° East 524 603 35,800 774 Climbing Fort Worth Center
Thu 01:38:15 PM 35.3225 -95.8317 92° East 529 609 36,600 774 Climbing Fort Worth Center
Thu 01:39:17 PM 35.3153 -95.6167 92° East 528 608 37,400 581 Climbing Fort Worth Center
Thu 01:40:19 PM 35.3103 -95.4386 92° East 525 604 37,800 471 Climbing Fort Worth Center
Thu 01:40:59 PM 35.3058 -95.3275 93° East 527 606 38,200 529 Climbing Memphis Center
Thu 01:42:01 PM 35.3008 -95.1481 92° East 528 608 38,700 387 Climbing Memphis Center
Thu 01:43:03 PM 35.2925 -94.9336 93° East 528 608 39,000 145 Climbing Memphis Center
Thu 01:44:05 PM 35.2867 -94.7544 92° East 528 608 39,000  Level Memphis Center
Thu 01:45:07 PM 35.2800 -94.5750 93° East 529 609 39,000  Level Memphis Center
Thu 01:46:09 PM 35.2725 -94.3964 93° East 529 609 39,000  Level Memphis Center
Thu 01:47:11 PM 35.2650 -94.2175 93° East 528 608 39,000  Level Memphis Center
Thu 01:48:13 PM 35.2569 -94.0386 93° East 525 604 39,000  Level Memphis Center
Thu 01:49:15 PM 35.2483 -93.8269 93° East 524 603 39,000  Level Memphis Center
Thu 01:50:17 PM 35.2408 -93.6503 93° East 524 603 39,000  Level Memphis Center
Thu 01:51:20 PM 35.2328 -93.4728 93° East 525 604 39,000  Level Memphis Center
Thu 01:52:22 PM 35.2228 -93.2817 94° East 525 604 39,000  Level Memphis Center
Thu 01:53:24 PM 35.2131 -93.1033 94° East 525 604 39,000  Level Memphis Center
Thu 01:54:26 PM 35.2042 -92.9231 93° East 530 610 39,000  Level Memphis Center
Thu 01:55:28 PM 35.1947 -92.7431 94° East 531 611 39,000  Level Memphis Center
Thu 01:56:30 PM 35.1847 -92.5550 94° East 532 612 39,000  Level Memphis Center
Thu 01:57:32 PM 35.1750 -92.3744 94° East 534 615 39,000  Level Memphis Center
Thu 01:58:35 PM 35.1603 -92.1581 95° East 536 617 39,000  Level Memphis Center
Thu 01:59:37 PM 35.1508 -91.9767 94° East 537 618 39,000  Level Memphis Center
Thu 02:00:39 PM 35.1397 -91.7944 94° East 538 619 39,000  Level Memphis Center
Thu 02:01:41 PM 35.1294 -91.6133 94° East 537 618 39,000  Level Memphis Center
Thu 02:02:43 PM 35.1178 -91.4344 95° East 533 613 39,000  Level Memphis Center
Thu 02:03:45 PM 35.1044 -91.2186 94° East 535 616 39,000  Level Memphis Center
Thu 02:04:47 PM 35.0917 -91.0364 95° East 535 616 39,000 -242 Level Memphis Center
Thu 02:05:49 PM 35.0786 -90.8542 95° East 534 615 38,500 -484 Descending Memphis Center
Thu 02:06:51 PM 35.0669 -90.6728 94° East 533 613 38,000 -532 Descending Memphis Center
Thu 02:07:53 PM 35.0528 -90.4914 95° East 532 612 37,400 -484 Descending Memphis Center
Thu 02:08:55 PM 35.0397 -90.3100 95° East 533 613 37,000 -192 Descending Memphis Center
Thu 02:09:58 PM 35.0269 -90.1289 95° East 531 611 37,000  Level Memphis Center
Thu 02:11:00 PM 35.0111 -89.9475 96° East 530 610 37,000  Level Memphis Center
Thu 02:12:02 PM 34.9842 -89.7611 100° East 539 620 37,000  Level Memphis Center
Thu 02:13:04 PM 34.9561 -89.5753 100° East 540 621 37,000  Level Memphis Center
Thu 02:14:06 PM 34.9236 -89.3650 101° East 534 615 37,000  Level Memphis Center
Thu 02:15:08 PM 34.8969 -89.1853 100° East 534 615 37,000  Level Memphis Center
Thu 02:16:10 PM 34.8697 -89.0075 101° East 530 610 37,000  Level Memphis Center
Thu 02:17:12 PM 34.8431 -88.8303 100° East 528 608 37,000  Level Memphis Center
Thu 02:18:15 PM 34.8147 -88.6508 101° East 533 613 37,000  Level Memphis Center
Thu 02:19:17 PM 34.7842 -88.4533 101° East 532 612 37,000 -435 Level Memphis Center
Thu 02:20:19 PM 34.7561 -88.2769 101° East 532 612 36,100 -1,113 Descending Memphis Center
Thu 02:21:21 PM 34.7275 -88.1031 101° East 527 606 34,700 -1,355 Descending Memphis Center
Thu 02:22:23 PM 34.6994 -87.9261 101° East 530 610 33,300 -823 Descending Memphis Center
Thu 02:23:25 PM 34.6714 -87.7494 101° East 531 611 33,000 -145 Descending Memphis Center
Thu 02:24:27 PM 34.6425 -87.5722 101° East 528 608 33,000  Level Memphis Center
Thu 02:25:29 PM 34.6108 -87.3931 102° East 531 611 33,000  Level Memphis Center
Thu 02:26:31 PM 34.5756 -87.2033 103° East 532 612 33,000  Level Memphis Center
Thu 02:27:33 PM 34.5367 -87.0067 103° East 529 609 33,000  Level Memphis Center
Thu 02:28:35 PM 34.5031 -86.8317 103° East 531 611 33,000  Level Memphis Center
Thu 02:29:37 PM 34.4697 -86.6581 103° East 530 610 33,000  Level Memphis Center
Thu 02:30:40 PM 34.4364 -86.4850 103° East 528 608 33,000  Level Memphis Center
Thu 02:31:42 PM 34.4033 -86.3131 103° East 526 605 33,000 -339 Level Memphis Center
Thu 02:32:44 PM 34.3675 -86.1422 104° East 525 604 32,300 -2,371 Descending Memphis Center
Thu 02:33:46 PM 34.3281 -85.9394 103° East 519 597 28,100 -3,823 Descending Memphis Center
Thu 02:34:48 PM 34.2939 -85.7664 103° East 524 603 24,400 -3,260 Descending Memphis Center
Thu 02:35:53 PM 34.2625 -85.5972 103° East 512 589 21,200 -3,024 Descending Atlanta Center
Thu 02:36:53 PM 34.2269 -85.4181 103° East 507 583 18,100 -2,750 Descending Atlanta Center
Thu 02:37:53 PM 34.1953 -85.2669 104° East 490 564 15,700 -2,250 Descending Atlanta Center
Thu 02:38:53 PM 34.1611 -85.1258 106° East 452 520 13,600 -1,250 Descending Atlanta Center
Thu 02:39:53 PM 34.1053 -85.0447 130° Southeast 359 413 13,200 -500 Descending Atlanta Center
Thu 02:40:53 PM 34.0494 -84.9714 133° Southeast 320 368 12,600 -1,000 Descending Atlanta Center
Thu 02:41:53 PM 33.9917 -84.9006 135° Southeast 298 343 11,200 -1,500 Descending Atlanta Center
Thu 02:42:53 PM 33.9317 -84.8350 138° Southeast 298 343 9,600 -1,514 Descending Atlanta Center
Thu 02:43:44 PM 33.8667 -84.8167 167° South 268 308 8,400 -1,459 Descending Atlanta TRACON
Thu 02:44:44 PM 33.8000 -84.8167 180° South 259 298 6,900 -1,684 Descending Atlanta TRACON
Thu 02:45:38 PM 33.7333 -84.8000 168° South 266 306 5,200 -1,526 Descending Atlanta TRACON
Thu 02:46:38 PM 33.6833 -84.7333 132° Southeast 255 293 4,000 -571 Descending Atlanta TRACON
Thu 02:47:44 PM 33.6667 -84.6500 103° East 223 257 4,000 -238 Level Atlanta TRACON
Thu 02:48:44 PM 33.6500 -84.5833 107° East 206 237 3,500 -714 Descending Atlanta TRACON
Thu 02:49:50 PM 33.6500 -84.5167 90° East 177 204 2,500 -895 Descending Atlanta TRACON
Thu 02:50:38 PM 33.6500 -84.4833 90° East 146 168 1,800 -875 Descending Atlanta TRACON

Login

Don't have an account? Register now (free) for customized features, flight alerts, and more!